createdAt,value
2022-08-16T00:02:12.805Z,18.47
2022-08-16T00:05:16.730Z,18.27
2022-08-16T00:08:36.811Z,18.17
2022-08-16T00:11:41.140Z,18.17
2022-08-16T00:14:45.036Z,18.32
2022-08-16T00:17:57.065Z,18.35
2022-08-16T00:21:00.614Z,18.27
2022-08-16T00:24:06.281Z,17.93
2022-08-16T00:27:14.236Z,17.92
2022-08-16T00:30:28.734Z,18.15
2022-08-16T00:33:31.874Z,18.23
2022-08-16T00:36:34.491Z,18.29
2022-08-16T00:39:36.979Z,18.24
2022-08-16T00:42:41.573Z,18.15
2022-08-16T00:45:57.929Z,17.95
2022-08-16T00:49:02.928Z,17.89
2022-08-16T00:52:06.217Z,18.00
2022-08-16T00:55:37.973Z,18.00
2022-08-16T00:58:44.379Z,18.02
2022-08-16T01:01:48.152Z,18.14
2022-08-16T01:05:10.434Z,18.16
2022-08-16T01:08:35.737Z,18.26
2022-08-16T01:11:53.695Z,18.39
2022-08-16T01:15:00.260Z,18.54
2022-08-16T01:18:08.349Z,18.60
2022-08-16T01:21:39.772Z,18.56
2022-08-16T01:24:54.054Z,18.59
2022-08-16T01:28:01.943Z,18.63
2022-08-16T01:31:05.348Z,18.72
2022-08-16T01:34:07.926Z,18.77
2022-08-16T01:37:25.937Z,18.87
2022-08-16T01:40:31.443Z,18.88
2022-08-16T01:43:36.626Z,18.87
2022-08-16T01:46:43.132Z,18.83
2022-08-16T01:50:40.920Z,18.61
2022-08-16T01:53:08.006Z,18.63
2022-08-16T01:56:23.112Z,18.79
2022-08-16T01:59:26.397Z,18.83
2022-08-16T02:02:30.209Z,18.87
2022-08-16T02:05:32.899Z,18.83
2022-08-16T02:08:37.336Z,18.87
2022-08-16T02:11:48.572Z,18.91
2022-08-16T02:14:56.187Z,18.92
2022-08-16T02:18:01.816Z,19.06
2022-08-16T02:21:06.068Z,19.07
2022-08-16T02:24:31.332Z,19.02
2022-08-16T02:27:32.414Z,18.99
2022-08-16T02:30:36.667Z,18.95
2022-08-16T02:33:50.027Z,18.84
2022-08-16T02:36:53.071Z,18.91
2022-08-16T02:39:57.624Z,18.84
2022-08-16T02:43:01.581Z,18.78
2022-08-16T02:46:07.405Z,18.70
2022-08-16T02:49:11.005Z,18.61
2022-08-16T02:52:17.193Z,18.55
2022-08-16T02:55:41.266Z,18.57
2022-08-16T02:58:45.917Z,18.55
2022-08-16T03:01:49.647Z,18.29
2022-08-16T03:04:52.784Z,18.06
2022-08-16T03:07:56.589Z,18.00
2022-08-16T03:10:59.461Z,18.04
2022-08-16T03:14:07.453Z,18.12
2022-08-16T03:17:10.917Z,18.15
2022-08-16T03:20:18.329Z,18.24
2022-08-16T03:23:20.841Z,18.29
2022-08-16T03:26:25.731Z,18.30
2022-08-16T03:29:32.018Z,18.32
2022-08-16T03:32:34.510Z,18.28
2022-08-16T03:35:40.057Z,18.23
2022-08-16T03:38:42.795Z,18.16
2022-08-16T03:41:50.280Z,18.14
2022-08-16T03:45:03.474Z,18.13
2022-08-16T03:48:07.605Z,17.98
2022-08-16T03:51:13.208Z,17.81
2022-08-16T03:54:15.754Z,17.69
2022-08-16T03:57:20.293Z,17.56
2022-08-16T04:00:36.134Z,17.58
2022-08-16T04:03:44.255Z,17.71
2022-08-16T04:06:46.771Z,17.77
2022-08-16T04:09:49.476Z,17.68
2022-08-16T04:12:53.849Z,17.63
2022-08-16T04:15:59.383Z,17.70
2022-08-16T04:19:04.556Z,17.93
2022-08-16T04:22:08.736Z,18.06
2022-08-16T04:25:13.688Z,18.20
2022-08-16T04:28:54.531Z,18.35
2022-08-16T04:31:43.740Z,18.81
2022-08-16T04:34:46.372Z,19.45
2022-08-16T04:37:53.783Z,19.86
2022-08-16T04:40:58.046Z,20.51
2022-08-16T04:44:00.573Z,21.17
2022-08-16T04:47:21.767Z,21.84
2022-08-16T04:50:29.729Z,22.48
2022-08-16T04:53:33.194Z,22.72
2022-08-16T04:56:36.317Z,23.05
2022-08-16T04:59:48.653Z,23.44
2022-08-16T05:02:58.836Z,23.91
2022-08-16T05:06:05.104Z,24.13
2022-08-16T05:09:09.482Z,24.11
2022-08-16T05:12:18.080Z,23.78
2022-08-16T05:15:25.244Z,22.97
2022-08-16T05:18:29.706Z,22.90
2022-08-16T05:21:35.989Z,22.79
2022-08-16T05:24:41.076Z,23.05
2022-08-16T05:27:46.441Z,23.89
2022-08-16T05:30:51.115Z,24.81
2022-08-16T05:33:54.961Z,25.56
2022-08-16T05:36:58.820Z,26.19
2022-08-16T05:40:01.411Z,26.72
2022-08-16T05:43:12.147Z,26.97
2022-08-16T05:46:28.848Z,26.82
2022-08-16T05:49:39.236Z,26.67
2022-08-16T05:52:44.929Z,26.57
2022-08-16T05:55:47.609Z,26.26
2022-08-16T05:58:50.226Z,26.06
2022-08-16T06:01:53.927Z,25.75
2022-08-16T06:04:57.876Z,25.45
2022-08-16T06:08:00.676Z,25.18
2022-08-16T06:11:10.269Z,25.29
2022-08-16T06:14:14.250Z,25.55
2022-08-16T06:17:17.466Z,25.70
2022-08-16T06:20:35.805Z,25.85
2022-08-16T06:23:39.188Z,26.01
2022-08-16T06:26:57.405Z,26.14
2022-08-16T06:30:00.611Z,26.16
2022-08-16T06:33:05.661Z,26.13
2022-08-16T06:36:11.638Z,25.73
2022-08-16T06:39:16.372Z,25.90
2022-08-16T06:42:19.442Z,26.36
2022-08-16T06:45:24.150Z,26.74
2022-08-16T06:48:32.158Z,26.66
2022-08-16T06:51:45.221Z,26.57
2022-08-16T06:54:51.065Z,26.49
2022-08-16T06:57:55.020Z,27.21
2022-08-16T07:00:58.131Z,27.17
2022-08-16T07:04:02.902Z,26.97
2022-08-16T07:07:14.985Z,27.21
2022-08-16T07:10:17.934Z,27.58
2022-08-16T07:13:43.949Z,27.67
2022-08-16T07:16:43.682Z,27.90
2022-08-16T07:20:29.358Z,28.59
2022-08-16T07:23:13.248Z,29.30
2022-08-16T07:26:25.487Z,29.24
2022-08-16T07:29:31.721Z,28.85
2022-08-16T07:32:34.523Z,29.00
2022-08-16T07:35:44.270Z,29.33
2022-08-16T07:38:49.262Z,29.73
2022-08-16T07:41:52.568Z,30.26
2022-08-16T07:44:57.175Z,30.38
2022-08-16T07:47:59.753Z,30.48
2022-08-16T07:51:14.609Z,30.32
2022-08-16T07:54:20.864Z,30.32
2022-08-16T07:57:24.483Z,31.00
2022-08-16T08:00:27.146Z,31.00
2022-08-16T08:03:35.708Z,31.11
2022-08-16T08:06:42.295Z,31.23
2022-08-16T08:09:46.226Z,31.07
2022-08-16T08:12:49.289Z,31.17
2022-08-16T08:15:53.407Z,31.42
2022-08-16T08:19:00.890Z,31.97
2022-08-16T08:22:06.304Z,32.03
2022-08-16T08:25:13.085Z,32.42
2022-08-16T08:28:20.065Z,32.59
2022-08-16T08:31:22.588Z,32.79
2022-08-16T08:34:25.011Z,33.10
2022-08-16T08:37:27.515Z,33.06
2022-08-16T08:40:51.409Z,32.92
2022-08-16T08:43:53.901Z,33.30
2022-08-16T08:47:00.057Z,33.25
2022-08-16T08:50:04.458Z,33.74
2022-08-16T08:53:08.029Z,34.20
2022-08-16T08:56:23.199Z,34.51
2022-08-16T08:59:28.270Z,34.20
2022-08-16T09:02:31.004Z,33.68
2022-08-16T09:05:36.047Z,33.35
2022-08-16T09:08:39.852Z,33.12
2022-08-16T09:12:03.987Z,33.51
2022-08-16T09:15:13.638Z,33.81
2022-08-16T09:18:26.940Z,33.44
2022-08-16T09:21:37.953Z,33.93
2022-08-16T09:24:52.947Z,34.19
2022-08-16T09:28:02.295Z,34.37
2022-08-16T09:31:11.421Z,34.80
2022-08-16T09:34:19.137Z,34.69
2022-08-16T09:37:22.053Z,34.30
2022-08-16T09:40:42.838Z,33.78
2022-08-16T09:43:58.263Z,33.91
2022-08-16T09:47:01.460Z,34.02
2022-08-16T09:50:13.281Z,34.04
2022-08-16T09:53:26.765Z,33.79
2022-08-16T09:56:32.756Z,34.01
2022-08-16T09:59:38.506Z,34.09
2022-08-16T10:02:44.115Z,34.77
2022-08-16T10:05:48.016Z,34.66
2022-08-16T10:08:52.648Z,34.23
2022-08-16T10:12:34.848Z,33.89
2022-08-16T10:15:55.732Z,34.37
2022-08-16T10:19:06.316Z,34.74
2022-08-16T10:22:12.537Z,34.76
2022-08-16T10:27:16.723Z,34.01
2022-08-16T10:28:39.745Z,33.71
2022-08-16T10:31:46.300Z,33.44
2022-08-16T10:34:51.377Z,33.56
2022-08-16T10:37:55.030Z,33.68
2022-08-16T10:40:57.642Z,34.06
2022-08-16T10:44:02.783Z,35.00
2022-08-16T10:47:07.288Z,34.60
2022-08-16T10:50:19.844Z,33.91
2022-08-16T10:53:22.723Z,34.06
2022-08-16T10:56:52.452Z,35.44
2022-08-16T10:59:53.267Z,35.72
2022-08-16T11:03:04.876Z,36.02
2022-08-16T11:06:09.566Z,34.24
2022-08-16T11:09:25.271Z,34.06
2022-08-16T11:12:28.493Z,33.96
2022-08-16T11:15:32.230Z,35.24
2022-08-16T11:19:04.429Z,35.83
2022-08-16T11:22:38.623Z,35.80
2022-08-16T11:32:11.824Z,35.80
2022-08-16T11:35:43.408Z,35.30
2022-08-16T11:38:51.354Z,34.30
2022-08-16T11:41:59.384Z,33.54
2022-08-16T11:45:01.920Z,33.97
2022-08-16T11:48:05.921Z,33.65
2022-08-16T11:51:09.881Z,34.51
2022-08-16T11:54:20.979Z,33.97
2022-08-16T11:57:25.077Z,34.36
2022-08-16T12:00:33.966Z,33.74
2022-08-16T12:03:53.443Z,32.97
2022-08-16T12:06:57.318Z,32.24
2022-08-16T12:09:59.740Z,32.42
2022-08-16T12:13:03.792Z,33.42
2022-08-16T12:16:08.209Z,34.73
2022-08-16T12:19:13.846Z,34.30
2022-08-16T12:22:18.673Z,34.24
2022-08-16T12:25:24.598Z,33.66
2022-08-16T12:28:54.290Z,33.38
2022-08-16T12:32:01.013Z,34.57
2022-08-16T12:35:16.067Z,33.92
2022-08-16T12:38:41.223Z,32.11
2022-08-16T12:41:45.715Z,31.55
2022-08-16T12:44:49.502Z,31.21
2022-08-16T12:48:32.587Z,31.99
2022-08-16T12:51:59.450Z,32.95
2022-08-16T12:55:01.933Z,32.48
2022-08-16T12:58:06.065Z,31.80
2022-08-16T13:01:17.210Z,31.46
2022-08-16T13:04:20.404Z,32.69
2022-08-16T13:07:27.268Z,33.73
2022-08-16T13:10:37.835Z,34.65
2022-08-16T13:13:41.754Z,34.43
2022-08-16T13:16:44.223Z,33.41
2022-08-16T13:23:12.810Z,31.81
2022-08-16T13:26:20.862Z,31.28
2022-08-16T13:29:23.328Z,31.07
2022-08-16T13:32:40.463Z,30.84
2022-08-16T13:35:45.182Z,30.46
2022-08-16T13:38:47.623Z,30.42
2022-08-16T13:41:54.510Z,30.95
2022-08-16T13:44:58.473Z,32.28
2022-08-16T13:48:02.365Z,33.04
2022-08-16T13:51:07.444Z,32.91
2022-08-16T13:54:09.977Z,31.38
2022-08-16T13:57:14.370Z,31.14
2022-08-16T14:00:20.892Z,31.01
2022-08-16T14:03:23.908Z,31.86
2022-08-16T14:06:26.501Z,31.07
2022-08-16T14:09:32.353Z,31.65
2022-08-16T14:12:38.152Z,32.95
2022-08-16T14:15:41.892Z,33.88
2022-08-16T14:18:44.547Z,34.50
2022-08-16T14:21:55.939Z,34.77
2022-08-16T14:24:59.970Z,34.67
2022-08-16T14:28:04.655Z,34.08
2022-08-16T14:31:12.090Z,33.80
2022-08-16T14:34:14.661Z,34.12
2022-08-16T14:37:19.677Z,33.90
2022-08-16T14:40:29.112Z,33.92
2022-08-16T14:43:33.085Z,34.00
2022-08-16T14:46:36.972Z,34.09
2022-08-16T14:49:41.533Z,33.33
2022-08-16T14:52:57.582Z,32.30
2022-08-16T14:56:00.044Z,32.44
2022-08-16T14:59:03.945Z,32.83
2022-08-16T15:02:15.092Z,32.76
2022-08-16T15:05:37.803Z,33.16
2022-08-16T15:08:40.577Z,33.42
2022-08-16T15:11:45.200Z,33.63
2022-08-16T15:14:52.049Z,33.88
2022-08-16T15:17:56.505Z,34.08
2022-08-16T15:21:00.632Z,33.89
2022-08-16T15:24:03.453Z,33.37
2022-08-16T15:27:08.130Z,33.27
2022-08-16T15:30:56.573Z,33.10
2022-08-16T15:33:48.555Z,32.62
2022-08-16T15:36:53.432Z,32.36
2022-08-16T15:39:58.018Z,32.10
2022-08-16T15:43:00.888Z,32.65
2022-08-16T15:46:55.687Z,33.04
2022-08-16T15:49:46.901Z,33.38
2022-08-16T15:52:57.992Z,33.52
2022-08-16T15:56:02.123Z,33.30
2022-08-16T15:59:08.606Z,33.22
2022-08-16T16:02:13.355Z,33.17
2022-08-16T16:05:19.052Z,33.13
2022-08-16T16:08:25.154Z,33.03
2022-08-16T16:11:27.790Z,33.02
2022-08-16T16:14:33.704Z,32.92
2022-08-16T16:17:37.517Z,32.73
2022-08-16T16:20:43.717Z,32.71
2022-08-16T16:23:55.164Z,32.23
2022-08-16T16:27:01.407Z,31.98
2022-08-16T16:30:33.357Z,31.90
2022-08-16T16:33:33.874Z,31.60
2022-08-16T16:36:39.901Z,31.53
2022-08-16T16:39:46.139Z,31.39
2022-08-16T16:42:51.133Z,31.34
2022-08-16T16:45:54.894Z,31.18
2022-08-16T16:48:59.927Z,30.73
2022-08-16T16:52:06.587Z,30.34
2022-08-16T16:55:10.834Z,30.46
2022-08-16T16:58:36.494Z,30.49
2022-08-16T17:01:59.344Z,30.31
2022-08-16T17:05:08.487Z,30.22
2022-08-16T17:08:11.213Z,30.21
2022-08-16T17:11:16.084Z,30.22
2022-08-16T17:14:33.458Z,30.10
2022-08-16T17:17:59.693Z,29.97
2022-08-16T17:21:00.778Z,29.81
2022-08-16T17:24:03.812Z,29.67
2022-08-16T17:27:33.287Z,29.50
2022-08-16T17:30:45.597Z,29.46
2022-08-16T17:33:54.812Z,29.48
2022-08-16T17:36:59.421Z,29.47
2022-08-16T17:40:25.605Z,29.55
2022-08-16T17:43:27.446Z,29.51
2022-08-16T17:46:51.633Z,29.42
2022-08-16T17:49:52.467Z,29.05
2022-08-16T17:52:57.266Z,28.49
2022-08-16T17:56:00.329Z,27.84
2022-08-16T17:59:02.811Z,27.53
2022-08-16T18:02:41.024Z,27.34
2022-08-16T18:05:30.261Z,27.16
2022-08-16T18:08:34.293Z,26.94
2022-08-16T18:11:41.037Z,26.74
2022-08-16T18:14:51.087Z,26.50
2022-08-16T18:17:54.992Z,26.26
2022-08-16T18:21:14.965Z,26.00
2022-08-16T18:24:19.797Z,25.89
2022-08-16T18:27:26.214Z,25.63
2022-08-16T18:30:29.828Z,25.44
2022-08-16T18:33:41.313Z,25.26
2022-08-16T18:36:46.366Z,25.22
2022-08-16T18:39:50.375Z,25.08
2022-08-16T18:42:55.936Z,24.84
2022-08-16T18:45:58.482Z,24.53
2022-08-16T18:49:00.926Z,24.29
2022-08-16T18:52:04.209Z,24.11
2022-08-16T18:55:13.919Z,23.91
2022-08-16T18:58:17.370Z,23.71
2022-08-16T19:01:19.894Z,23.54
2022-08-16T19:04:55.531Z,23.43
2022-08-16T19:07:44.931Z,23.30
2022-08-16T19:10:50.980Z,23.19
2022-08-16T19:13:53.504Z,23.00
2022-08-16T19:16:56.692Z,22.90
2022-08-16T19:19:59.132Z,22.72
2022-08-16T19:23:05.102Z,22.57
2022-08-16T19:26:16.164Z,22.45
2022-08-16T19:29:28.129Z,22.31
2022-08-16T19:32:30.593Z,22.24
2022-08-16T19:35:34.088Z,22.14
2022-08-16T19:38:36.876Z,22.01
2022-08-16T19:41:43.351Z,21.89
2022-08-16T19:44:48.714Z,21.83
2022-08-16T19:47:56.335Z,21.78
2022-08-16T19:50:59.220Z,21.75
2022-08-16T19:54:01.650Z,21.72
2022-08-16T19:57:05.669Z,21.53
2022-08-16T20:00:14.698Z,21.40
2022-08-16T20:03:21.945Z,21.32
2022-08-16T20:06:38.034Z,21.25
2022-08-16T20:09:41.789Z,21.17
2022-08-16T20:12:58.493Z,21.11
2022-08-16T20:16:05.983Z,21.01
2022-08-16T20:19:14.484Z,20.91
2022-08-16T20:22:49.722Z,20.70
2022-08-16T20:25:49.890Z,20.63
2022-08-16T20:28:55.419Z,20.61
2022-08-16T20:31:57.993Z,20.49
2022-08-16T20:35:02.918Z,20.44
2022-08-16T20:38:06.709Z,20.34
2022-08-16T20:41:09.322Z,20.22
2022-08-16T20:44:13.845Z,20.08
2022-08-16T20:47:16.383Z,20.01
2022-08-16T20:50:18.968Z,20.00
2022-08-16T20:53:21.557Z,19.97
2022-08-16T20:56:24.284Z,19.95
2022-08-16T20:59:28.432Z,19.98
2022-08-16T21:02:30.912Z,19.95
2022-08-16T21:05:34.126Z,19.87
2022-08-16T21:08:52.337Z,19.81
2022-08-16T21:11:57.562Z,19.64
2022-08-16T21:15:06.295Z,19.54
2022-08-16T21:18:08.813Z,19.43
2022-08-16T21:21:12.031Z,19.33
2022-08-16T21:24:15.185Z,19.20
2022-08-16T21:27:18.549Z,19.02
2022-08-16T21:30:32.374Z,19.00
2022-08-16T21:33:35.159Z,19.03
2022-08-16T21:36:38.096Z,18.88
2022-08-16T21:39:40.989Z,18.60
2022-08-16T21:42:44.110Z,18.78
2022-08-16T21:45:48.767Z,18.83
2022-08-16T21:48:57.548Z,18.95
2022-08-16T21:52:00.088Z,19.09
2022-08-16T21:55:02.546Z,19.13
2022-08-16T21:58:05.479Z,19.17
2022-08-16T22:01:09.351Z,19.23
2022-08-16T22:04:37.014Z,19.18
2022-08-16T22:07:37.220Z,18.87
2022-08-16T22:11:06.791Z,18.86
2022-08-16T22:14:05.782Z,18.84
2022-08-16T22:17:09.590Z,18.69
2022-08-16T22:20:12.408Z,18.48
2022-08-16T22:23:18.963Z,18.50
2022-08-16T22:26:30.204Z,18.67
2022-08-16T22:29:33.963Z,18.84
2022-08-16T22:32:40.588Z,18.94
2022-08-16T22:35:44.036Z,18.80
2022-08-16T22:38:55.005Z,18.76
2022-08-16T22:41:59.348Z,18.76
2022-08-16T22:45:06.548Z,18.68
2022-08-16T22:48:10.563Z,18.43
2022-08-16T22:51:13.994Z,18.30
2022-08-16T22:54:43.892Z,18.20
2022-08-16T22:57:39.241Z,17.90
2022-08-16T23:00:44.004Z,17.77
2022-08-16T23:03:47.934Z,17.86
2022-08-16T23:06:50.370Z,17.93
2022-08-16T23:09:53.621Z,17.95
2022-08-16T23:12:58.604Z,17.87
2022-08-16T23:16:10.622Z,17.83
2022-08-16T23:19:17.327Z,17.69
2022-08-16T23:22:19.775Z,17.56
2022-08-16T23:25:30.215Z,17.54
2022-08-16T23:28:32.979Z,17.51
2022-08-16T23:31:35.575Z,17.56
2022-08-16T23:34:40.050Z,17.59
2022-08-16T23:37:42.534Z,17.56
2022-08-16T23:40:45.447Z,17.56
2022-08-16T23:43:47.925Z,17.44
2022-08-16T23:46:50.478Z,17.47
2022-08-16T23:50:01.281Z,17.64
2022-08-16T23:53:07.514Z,17.33
2022-08-16T23:56:12.679Z,17.26
2022-08-16T23:59:15.907Z,17.37
